Time;durP1;ratioP1;P1;durP2;ratioP2;P2;SDS_P1;SDS_P2;PMS_P1;PMS_P2;Temp;Humidity;BMP_temperature;BMP_pressure;BME280_temperature;BME280_humidity;BME280_pressure;Samples;Min_cycle;Max_cycle;Signal;HPM_P1;HPM_P2
2024/03/14 00:00:17;;;;;;;7.15;4.90;;;;;;;7.59;100.00;98457.72;6107286;19;21272;-71
2024/03/14 00:02:17;;;;;;;9.43;5.38;;;;;;;7.60;100.00;98461.28;6106535;19;20533;-71
2024/03/14 00:04:19;;;;;;;7.00;4.93;;;;;;;7.60;100.00;98464.03;6108262;19;20003;-71
2024/03/14 00:06:20;;;;;;;5.93;4.57;;;;;;;7.61;100.00;98462.88;6107351;19;20319;-71
2024/03/14 00:08:21;;;;;;;6.90;4.40;;;;;;;7.58;100.00;98461.63;6106923;19;21644;-71
2024/03/14 00:10:21;;;;;;;6.38;3.92;;;;;;;7.59;100.00;98468.75;6107450;19;20339;-72
2024/03/14 00:12:21;;;;;;;7.32;4.57;;;;;;;7.59;100.00;98466.00;6106368;19;20010;-72
2024/03/14 00:14:21;;;;;;;6.30;4.72;;;;;;;7.59;100.00;98459.69;6097707;19;20040;-72
2024/03/14 00:16:22;;;;;;;5.72;4.15;;;;;;;7.57;100.00;98462.81;6106995;19;20010;-71
2024/03/14 00:18:22;;;;;;;6.38;4.13;;;;;;;7.59;100.00;98467.94;6107193;19;20011;-71
2024/03/14 00:20:24;;;;;;;5.40;4.20;;;;;;;7.58;100.00;98463.59;6110348;19;20030;-71
2024/03/14 00:22:25;;;;;;;5.85;3.88;;;;;;;7.60;100.00;98458.53;6110985;19;20015;-71
2024/03/14 00:24:25;;;;;;;5.32;4.13;;;;;;;7.59;100.00;98457.72;6112738;19;21137;-71
2024/03/14 00:26:25;;;;;;;5.13;4.47;;;;;;;7.59;100.00;98456.94;6112854;19;20010;-71
2024/03/14 00:28:26;;;;;;;5.75;4.07;;;;;;;7.60;100.00;98458.53;6111910;19;20010;-71
2024/03/14 00:30:27;;;;;;;11.38;4.45;;;;;;;7.64;100.00;98464.13;6113414;19;20018;-71
2024/03/14 00:32:27;;;;;;;6.20;4.30;;;;;;;7.63;100.00;98460.56;6111232;19;20035;-71
2024/03/14 00:34:28;;;;;;;5.82;4.35;;;;;;;7.61;100.00;98457.34;6112759;19;20028;-71
2024/03/14 00:36:28;;;;;;;6.47;4.80;;;;;;;7.61;100.00;98457.34;6110036;19;20006;-72
2024/03/14 00:38:30;;;;;;;7.55;4.70;;;;;;;7.61;100.00;98449.09;6112550;19;20006;-72
2024/03/14 00:40:31;;;;;;;5.80;4.15;;;;;;;7.64;100.00;98451.16;6112082;19;20535;-72
2024/03/14 00:42:31;;;;;;;5.35;4.07;;;;;;;7.64;100.00;98455.88;6111934;19;20014;-72
2024/03/14 00:44:32;;;;;;;7.05;4.40;;;;;;;7.59;100.00;98446.72;6109785;19;21149;-72
2024/03/14 00:46:33;;;;;;;5.38;3.67;;;;;;;7.62;100.00;98450.72;6112693;19;20340;-71
2024/03/14 00:48:33;;;;;;;5.22;4.13;;;;;;;7.58;100.00;98445.13;6110747;19;20344;-71
2024/03/14 00:50:35;;;;;;;4.22;3.33;;;;;;;7.60;100.00;98447.50;6112052;19;20009;-71
2024/03/14 00:52:37;;;;;;;5.10;3.63;;;;;;;7.62;100.00;98447.19;6111148;19;20015;-71
2024/03/14 00:54:38;;;;;;;5.70;3.63;;;;;;;7.60;100.00;98437.28;6112692;19;20003;-72
2024/03/14 00:56:38;;;;;;;6.07;3.30;;;;;;;7.61;100.00;98429.81;6112065;19;20018;-72
2024/03/14 00:58:38;;;;;;;4.82;3.60;;;;;;;7.63;100.00;98433.03;6111973;19;20007;-72
2024/03/14 01:00:39;;;;;;;5.50;3.60;;;;;;;7.64;100.00;98437.38;6111666;19;20035;-72
2024/03/14 01:02:41;;;;;;;4.82;3.58;;;;;;;7.66;100.00;98437.03;6111028;19;20483;-72
2024/03/14 01:04:41;;;;;;;4.82;3.28;;;;;;;7.64;100.00;98436.59;6111272;19;20010;-72
2024/03/14 01:06:42;;;;;;;5.35;4.03;;;;;;;7.64;100.00;98434.63;6112636;19;20221;-72
2024/03/14 01:08:42;;;;;;;5.63;3.80;;;;;;;7.62;100.00;98422.41;6111081;19;20009;-72
2024/03/14 01:10:43;;;;;;;6.15;4.03;;;;;;;7.62;100.00;98425.94;6111599;19;19999;-72
2024/03/14 01:12:43;;;;;;;4.85;3.22;;;;;;;7.62;100.00;98428.69;6110173;19;20466;-72
2024/03/14 01:14:44;;;;;;;6.80;3.80;;;;;;;7.59;100.00;98426.66;6104866;19;20002;-72
2024/03/14 01:16:44;;;;;;;4.43;3.30;;;;;;;7.62;100.00;98428.69;6103465;19;20018;-72
2024/03/14 01:18:45;;;;;;;5.07;2.92;;;;;;;7.62;100.00;98423.19;6104548;19;20007;-72
2024/03/14 01:20:45;;;;;;;4.97;3.58;;;;;;;7.63;100.00;98419.28;6104911;19;20242;-72
2024/03/14 01:22:48;;;;;;;4.65;3.22;;;;;;;7.60;100.00;98418.00;6103209;19;20511;-72
2024/03/14 01:24:48;;;;;;;4.05;3.38;;;;;;;7.60;100.00;98426.28;6104096;19;20027;-72
2024/03/14 01:26:49;;;;;;;4.72;3.58;;;;;;;7.63;100.00;98422.03;6104070;19;20002;-72
2024/03/14 01:28:50;;;;;;;3.90;3.17;;;;;;;7.60;100.00;98418.00;6104215;19;20007;-72
2024/03/14 01:30:52;;;;;;;3.35;2.80;;;;;;;7.62;100.00;98423.19;6104557;19;20462;-72
2024/03/14 01:32:53;;;;;;;6.55;3.83;;;;;;;7.62;100.00;98414.13;6102231;19;20757;-72
2024/03/14 01:34:53;;;;;;;7.93;5.00;;;;;;;7.65;100.00;98414.19;6103780;19;20081;-72
2024/03/14 01:36:58;;;;;;;12.95;6.57;;;;;;;7.64;100.00;98417.31;6103120;19;20058;-72
2024/03/14 01:38:59;;;;;;;16.55;8.07;;;;;;;7.65;100.00;98414.19;6103859;19;19995;-72
2024/03/14 01:40:59;;;;;;;11.60;6.53;;;;;;;7.65;100.00;98416.94;6102615;19;19998;-72
2024/03/14 01:42:59;;;;;;;11.43;5.60;;;;;;;7.62;100.00;98411.38;6101583;19;19999;-72
2024/03/14 01:45:09;;;;;;;7.38;4.78;;;;;;;7.63;100.00;98411.00;6101613;19;19998;-72
2024/03/14 01:47:09;;;;;;;8.05;4.80;;;;;;;7.62;100.00;98408.63;6104204;19;20044;-72
2024/03/14 01:49:10;;;;;;;8.13;4.82;;;;;;;7.62;100.00;98412.19;6103169;19;20074;-72
2024/03/14 01:51:10;;;;;;;5.70;4.28;;;;;;;7.62;100.00;98425.16;6102973;19;20014;-72
2024/03/14 01:53:11;;;;;;;6.20;3.63;;;;;;;7.59;100.00;98413.66;6102846;19;20492;-72
2024/03/14 01:55:13;;;;;;;5.60;4.10;;;;;;;7.61;100.00;98405.03;6104440;19;20011;-72
2024/03/14 01:57:14;;;;;;;4.97;3.45;;;;;;;7.59;100.00;98412.88;6103177;19;20036;-72
2024/03/14 01:59:15;;;;;;;5.55;3.60;;;;;;;7.59;100.00;98405.41;6104592;19;20014;-72
2024/03/14 02:01:15;;;;;;;5.13;3.63;;;;;;;7.57;100.00;98410.50;6104404;19;20066;-72
2024/03/14 02:03:17;;;;;;;5.20;3.47;;;;;;;7.58;100.00;98408.53;6102778;19;20080;-72
2024/03/14 02:05:26;;;;;;;5.78;3.65;;;;;;;7.58;100.00;98401.06;6103143;19;20502;-71
2024/03/14 02:07:31;;;;;;;4.93;3.28;;;;;;;7.60;100.00;98403.44;6104347;19;20013;-71
2024/03/14 02:09:31;;;;;;;6.07;3.63;;;;;;;7.58;100.00;98400.28;6103533;19;20002;-71
2024/03/14 02:11:32;;;;;;;4.97;3.30;;;;;;;7.60;100.00;98401.50;6104571;19;20353;-71
2024/03/14 02:13:33;;;;;;;5.07;4.05;;;;;;;7.62;100.00;98398.41;6102262;19;20459;-71
2024/03/14 02:15:35;;;;;;;5.35;3.70;;;;;;;7.61;100.00;98402.28;6109353;19;20002;-72
2024/03/14 02:17:36;;;;;;;4.88;3.33;;;;;;;7.62;100.00;98397.63;6108758;19;20003;-72
2024/03/14 02:19:38;;;;;;;6.00;3.70;;;;;;;7.62;100.00;98394.84;6110144;19;20034;-72
2024/03/14 02:21:39;;;;;;;4.88;3.70;;;;;;;7.63;100.00;98391.75;6109034;19;20065;-72
2024/03/14 02:23:40;;;;;;;5.68;3.83;;;;;;;7.65;100.00;98389.41;6106766;19;20003;-72
2024/03/14 02:25:40;;;;;;;5.25;3.92;;;;;;;7.64;100.00;98390.56;6109234;19;19995;-72
2024/03/14 02:27:40;;;;;;;7.63;3.80;;;;;;;7.65;100.00;98394.91;6109945;19;20005;-72
2024/03/14 02:29:41;;;;;;;7.65;5.07;;;;;;;7.61;100.00;98394.03;6109229;19;20473;-71
2024/03/14 02:31:42;;;;;;;7.28;4.25;;;;;;;7.62;100.00;98392.09;6108224;19;19994;-72
2024/03/14 02:33:44;;;;;;;5.72;4.15;;;;;;;7.60;100.00;98392.44;6108314;19;20400;-72
2024/03/14 02:35:44;;;;;;;7.20;3.95;;;;;;;7.59;100.00;98394.41;6109398;19;19995;-71
2024/03/14 02:37:45;;;;;;;5.55;3.80;;;;;;;7.57;100.00;98387.66;6109662;19;19999;-71
2024/03/14 02:39:45;;;;;;;5.15;3.67;;;;;;;7.59;100.00;98399.91;6108573;19;20019;-71
2024/03/14 02:41:45;;;;;;;4.28;3.30;;;;;;;7.59;100.00;98390.84;6107620;19;20013;-71
2024/03/14 02:43:46;;;;;;;4.80;3.53;;;;;;;7.58;100.00;98395.56;6107642;19;20086;-71
2024/03/14 02:45:46;;;;;;;4.47;3.55;;;;;;;7.58;100.00;98386.50;6108071;19;20003;-71
2024/03/14 02:47:47;;;;;;;6.60;4.00;;;;;;;7.54;100.00;98391.94;6109396;19;20321;-71
2024/03/14 02:49:49;;;;;;;5.22;3.72;;;;;;;7.55;100.00;98390.00;6108540;19;20016;-71
2024/03/14 02:51:50;;;;;;;6.07;4.43;;;;;;;7.55;100.00;98384.47;6107724;19;20013;-72
2024/03/14 02:53:50;;;;;;;6.15;4.90;;;;;;;7.55;100.00;98390.00;6107347;19;20021;-72
2024/03/14 02:55:50;;;;;;;7.75;4.10;;;;;;;7.54;100.00;98383.69;6108913;19;20028;-72
2024/03/14 02:57:50;;;;;;;6.15;4.45;;;;;;;7.54;100.00;98385.63;6108006;19;20010;-72
2024/03/14 02:59:52;;;;;;;9.57;5.18;;;;;;;7.53;100.00;98384.03;6108539;19;20608;-72
2024/03/14 03:01:53;;;;;;;11.55;5.55;;;;;;;7.53;100.00;98384.84;6107328;19;20011;-72
2024/03/14 03:03:53;;;;;;;9.05;5.25;;;;;;;7.52;100.00;98385.97;6107202;19;20509;-72
2024/03/14 03:05:54;;;;;;;9.02;5.82;;;;;;;7.54;100.00;98393.91;6108756;19;20011;-72
2024/03/14 03:07:54;;;;;;;8.57;4.75;;;;;;;7.52;100.00;98385.19;6108751;19;20007;-72
2024/03/14 03:09:55;;;;;;;9.88;5.57;;;;;;;7.53;100.00;98381.28;6108070;19;20035;-72
2024/03/14 03:11:57;;;;;;;8.82;4.88;;;;;;;7.53;100.00;98384.03;6107512;19;20014;-72
2024/03/14 03:13:57;;;;;;;8.32;4.57;;;;;;;7.52;100.00;98388.72;6107165;19;20391;-70
2024/03/14 03:15:58;;;;;;;13.43;7.00;;;;;;;7.51;100.00;98384.38;6108449;19;20319;-71
2024/03/14 03:17:59;;;;;;;14.80;7.10;;;;;;;7.52;100.00;98382.44;6108165;19;20034;-71
2024/03/14 03:20:02;;;;;;;30.65;11.20;;;;;;;7.52;100.00;98385.19;6107430;19;20373;-71
2024/03/14 03:22:05;;;;;;;44.72;17.15;;;;;;;7.52;100.00;98382.44;6106320;19;20010;-71
2024/03/14 03:24:08;;;;;;;41.58;16.13;;;;;;;7.49;100.00;98380.41;6108372;19;20367;-71
2024/03/14 03:26:09;;;;;;;36.35;13.70;;;;;;;7.50;100.00;98379.25;6107888;19;20006;-71
2024/03/14 03:28:09;;;;;;;16.08;7.70;;;;;;;7.48;100.00;98379.59;6107597;19;20025;-71
2024/03/14 03:30:11;;;;;;;12.73;6.68;;;;;;;7.49;100.00;98378.44;6106986;19;20003;-71
2024/03/14 03:32:11;;;;;;;13.25;7.32;;;;;;;7.47;100.00;98379.97;6107415;19;20356;-71
2024/03/14 03:34:11;;;;;;;14.07;7.95;;;;;;;7.47;100.00;98377.22;6107739;19;20010;-71
2024/03/14 03:36:14;;;;;;;12.20;7.22;;;;;;;7.46;100.00;98381.94;6109225;19;20423;-71
2024/03/14 03:38:14;;;;;;;11.55;6.78;;;;;;;7.45;100.00;98377.59;6107440;19;20392;-71
2024/03/14 03:40:15;;;;;;;9.52;5.50;;;;;;;7.44;100.00;98377.91;6109281;19;20074;-71
2024/03/14 03:42:15;;;;;;;6.85;4.60;;;;;;;7.43;100.00;98370.81;6106936;19;20003;-71
2024/03/14 03:44:15;;;;;;;8.10;4.57;;;;;;;7.41;100.00;98376.69;6106792;19;20009;-71
2024/03/14 03:46:16;;;;;;;6.35;4.43;;;;;;;7.40;100.00;98369.59;6107998;19;20021;-71
2024/03/14 03:48:16;;;;;;;7.10;5.03;;;;;;;7.38;100.00;98376.63;6108663;19;20026;-71
2024/03/14 03:50:16;;;;;;;7.18;5.00;;;;;;;7.38;100.00;98377.44;6108051;19;20010;-71
2024/03/14 03:52:17;;;;;;;6.03;4.03;;;;;;;7.36;100.00;98373.41;6107133;19;20220;-71
2024/03/14 03:54:18;;;;;;;6.15;4.60;;;;;;;7.37;100.00;98372.28;6104426;19;20002;-71
2024/03/14 03:56:19;;;;;;;5.78;4.70;;;;;;;7.36;100.00;98370.66;6108379;19;20066;-71
2024/03/14 03:58:21;;;;;;;5.18;4.43;;;;;;;7.36;100.00;98371.47;6107719;19;19998;-71
2024/03/14 04:00:33;;;;;;;5.32;4.13;;;;;;;7.36;100.00;98373.41;6107705;19;22970;-71
2024/03/14 04:02:36;;;;;;;6.20;4.50;;;;;;;7.33;100.00;98375.75;6106039;19;20034;-71
2024/03/14 04:04:37;;;;;;;5.72;4.35;;;;;;;7.33;100.00;98372.19;6107809;19;20248;-71
2024/03/14 04:06:37;;;;;;;5.63;4.30;;;;;;;7.35;100.00;98371.81;6107048;19;20033;-71
2024/03/14 04:08:37;;;;;;;5.93;4.47;;;;;;;7.33;100.00;98369.44;6107677;19;20003;-71
2024/03/14 04:10:38;;;;;;;4.53;3.60;;;;;;;7.34;100.00;98371.03;6107266;19;19998;-71
2024/03/14 04:12:38;;;;;;;5.20;4.05;;;;;;;7.36;100.00;98373.41;6106400;19;19995;-71
2024/03/14 04:14:42;;;;;;;5.88;3.85;;;;;;;7.36;100.00;98371.47;6106606;19;20024;-71
2024/03/14 04:16:43;;;;;;;5.78;3.72;;;;;;;7.36;100.00;98370.66;6107572;19;20009;-71
2024/03/14 04:18:44;;;;;;;5.68;4.22;;;;;;;7.35;100.00;98366.31;6106659;19;20005;-71
2024/03/14 04:20:46;;;;;;;6.10;3.70;;;;;;;7.35;100.00;98369.06;6107656;19;20003;-71
2024/03/14 04:22:46;;;;;;;5.85;4.30;;;;;;;7.36;100.00;98374.22;6105623;19;20020;-71
2024/03/14 04:24:47;;;;;;;4.95;3.78;;;;;;;7.36;100.00;98367.91;6105835;19;19998;-71
2024/03/14 04:26:48;;;;;;;5.25;2.97;;;;;;;7.35;100.00;98367.13;6107516;19;20364;-71
2024/03/14 04:28:49;;;;;;;5.07;3.58;;;;;;;7.36;100.00;98365.16;6106077;19;19998;-71
2024/03/14 04:30:53;;;;;;;4.55;3.25;;;;;;;7.37;100.00;98369.53;6106456;19;20478;-71
2024/03/14 04:32:53;;;;;;;4.82;3.80;;;;;;;7.39;100.00;98365.25;6105322;19;20474;-71
2024/03/14 04:34:54;;;;;;;5.45;3.33;;;;;;;7.39;100.00;98367.22;6107493;19;19994;-71
2024/03/14 04:36:56;;;;;;;4.55;3.20;;;;;;;7.40;100.00;98364.09;6106715;19;20467;-71
2024/03/14 04:38:56;;;;;;;3.60;2.70;;;;;;;7.39;100.00;98357.00;6107602;19;20006;-71
2024/03/14 04:40:57;;;;;;;3.88;2.95;;;;;;;7.39;100.00;98350.69;6106217;19;20070;-71
2024/03/14 04:42:58;;;;;;;5.43;3.00;;;;;;;7.38;100.00;98358.16;6105045;19;19999;-71
2024/03/14 04:44:58;;;;;;;3.70;2.78;;;;;;;7.37;100.00;98364.03;6102513;19;20045;-71
2024/03/14 04:46:58;;;;;;;6.30;4.43;;;;;;;7.38;100.00;98360.13;6102498;19;20507;-71
2024/03/14 04:48:59;;;;;;;4.30;3.22;;;;;;;7.39;100.00;98365.25;6104983;19;20009;-71
2024/03/14 04:50:59;;;;;;;4.35;3.30;;;;;;;7.40;100.00;98366.84;6103285;19;19999;-71
2024/03/14 04:52:59;;;;;;;4.07;2.88;;;;;;;7.39;100.00;98356.19;6104797;19;20019;-71
2024/03/14 04:55:00;;;;;;;3.03;2.72;;;;;;;7.42;100.00;98358.22;6105212;19;20487;-71
2024/03/14 04:57:01;;;;;;;4.68;3.22;;;;;;;7.39;100.00;98358.97;6106777;19;19999;-71
2024/03/14 04:59:01;;;;;;;3.97;3.03;;;;;;;7.42;100.00;98358.22;6105473;19;20011;-71
2024/03/14 05:01:02;;;;;;;5.00;3.78;;;;;;;7.41;100.00;98362.13;6106005;19;20354;-71
2024/03/14 05:03:04;;;;;;;6.00;3.00;;;;;;;7.41;100.00;98359.38;6105276;19;20002;-71
2024/03/14 05:05:05;;;;;;;4.53;3.00;;;;;;;7.39;100.00;98364.47;6106059;19;19999;-71
2024/03/14 05:07:06;;;;;;;6.27;2.77;;;;;;;7.36;100.00;98356.91;6111464;19;20461;-71
2024/03/14 05:09:08;;;;;;;4.15;3.47;;;;;;;7.37;100.00;98362.06;6112415;19;20267;-71
2024/03/14 05:11:08;;;;;;;4.70;3.00;;;;;;;7.37;100.00;98362.06;6111738;19;20002;-71
2024/03/14 05:13:08;;;;;;;4.18;3.40;;;;;;;7.36;100.00;98356.91;6100664;19;20327;-71
2024/03/14 05:15:09;;;;;;;5.07;3.40;;;;;;;7.36;100.00;98352.19;6111172;19;20073;-71
2024/03/14 05:17:12;;;;;;;3.47;2.97;;;;;;;7.33;100.00;98350.97;6109871;19;20006;-71
2024/03/14 05:19:20;;;;;;;5.07;3.22;;;;;;;7.30;100.00;98339.91;6108971;19;19994;-71
2024/03/14 05:21:20;;;;;;;4.28;3.47;;;;;;;7.30;100.00;98351.69;6111775;19;20003;-71
2024/03/14 05:23:21;;;;;;;5.45;3.08;;;;;;;7.30;100.00;98353.66;6109858;19;20010;-71
2024/03/14 05:25:21;;;;;;;3.65;2.90;;;;;;;7.27;100.00;98357.09;6109297;19;20010;-71
2024/03/14 05:27:22;;;;;;;3.97;3.00;;;;;;;7.25;100.00;98357.47;6111784;19;20003;-71
2024/03/14 05:29:22;;;;;;;3.92;2.80;;;;;;;7.24;100.00;98355.88;6112145;19;20340;-71
2024/03/14 05:31:22;;;;;;;4.05;2.65;;;;;;;7.25;100.00;98360.22;6111233;19;20006;-71
2024/03/14 05:33:23;;;;;;;3.53;2.85;;;;;;;7.29;100.00;98360.31;6110713;19;20364;-71
2024/03/14 05:35:23;;;;;;;5.28;2.80;;;;;;;7.26;100.00;98350.81;6110236;19;20099;-71
2024/03/14 05:37:26;;;;;;;3.85;2.72;;;;;;;7.26;100.00;98344.50;6111867;19;20009;-71
2024/03/14 05:39:27;;;;;;;4.03;2.88;;;;;;;7.29;100.00;98349.31;6110994;19;20026;-71
2024/03/14 05:41:29;;;;;;;5.82;2.65;;;;;;;7.29;100.00;98344.59;6111800;19;20455;-71
2024/03/14 05:43:29;;;;;;;6.53;3.13;;;;;;;7.30;100.00;98343.44;6109799;19;20462;-71
2024/03/14 05:45:34;;;;;;;5.25;3.28;;;;;;;7.29;100.00;98347.34;6110616;19;20003;-71
2024/03/14 05:47:35;;;;;;;5.43;2.97;;;;;;;7.30;100.00;98346.19;6109082;19;20030;-72
2024/03/14 05:49:36;;;;;;;4.60;3.20;;;;;;;7.35;100.00;98350.59;6106814;19;20033;-71
2024/03/14 05:51:36;;;;;;;4.32;2.90;;;;;;;7.35;100.00;98342.34;6110040;19;20014;-71
2024/03/14 05:53:37;;;;;;;4.35;2.92;;;;;;;7.37;100.00;98342.00;6109674;19;20006;-71
2024/03/14 05:55:37;;;;;;;3.35;2.80;;;;;;;7.38;100.00;98344.41;6109260;19;20007;-71
2024/03/14 05:57:37;;;;;;;6.10;3.08;;;;;;;7.36;100.00;98341.19;6109370;19;20007;-71
2024/03/14 05:59:38;;;;;;;4.18;2.80;;;;;;;7.36;100.00;98341.19;6110155;19;20250;-71
2024/03/14 06:01:38;;;;;;;2.97;2.50;;;;;;;7.38;100.00;98340.84;6109774;19;20074;-71
2024/03/14 06:03:42;;;;;;;4.05;3.40;;;;;;;7.39;100.00;98342.44;6109821;19;20526;-71
2024/03/14 06:05:42;;;;;;;3.70;3.03;;;;;;;7.37;100.00;98337.31;6110376;19;20523;-71
2024/03/14 06:07:43;;;;;;;3.50;3.00;;;;;;;7.42;100.00;98338.97;6109325;19;20007;-71
2024/03/14 06:09:43;;;;;;;4.80;3.55;;;;;;;7.43;100.00;98335.84;6109401;19;20007;-71
2024/03/14 06:11:43;;;;;;;5.13;3.70;;;;;;;7.44;100.00;98348.44;6110062;19;19999;-71
2024/03/14 06:13:45;;;;;;;4.13;3.45;;;;;;;7.46;100.00;98339.84;6107250;19;19998;-71
2024/03/14 06:15:45;;;;;;;5.28;3.60;;;;;;;7.44;100.00;98351.19;6100931;19;20400;-71
2024/03/14 06:17:50;;;;;;;5.25;3.70;;;;;;;7.46;100.00;98351.66;6101861;19;20010;-71
2024/03/14 06:19:51;;;;;;;6.32;3.85;;;;;;;7.48;100.00;98345.78;6104161;19;20006;-71
2024/03/14 06:21:51;;;;;;;4.75;4.00;;;;;;;7.47;100.00;98350.50;6102552;19;20009;-71
2024/03/14 06:23:51;;;;;;;5.63;4.10;;;;;;;7.49;100.00;98352.88;6102092;19;20002;-71
2024/03/14 06:25:52;;;;;;;6.00;4.20;;;;;;;7.52;100.00;98355.69;6103715;19;20002;-71
2024/03/14 06:27:52;;;;;;;5.43;4.40;;;;;;;7.55;100.00;98354.19;6102440;19;20023;-71
2024/03/14 06:29:54;;;;;;;5.80;4.38;;;;;;;7.55;100.00;98354.19;6103123;19;20700;-71
2024/03/14 06:31:54;;;;;;;5.28;4.68;;;;;;;7.56;100.00;98353.03;6100584;19;20487;-71
2024/03/14 06:33:55;;;;;;;5.72;4.65;;;;;;;7.57;100.00;98347.16;6103050;19;20015;-71
2024/03/14 06:35:56;;;;;;;7.53;4.88;;;;;;;7.60;100.00;98357.44;6102785;19;20002;-71
2024/03/14 06:37:57;;;;;;;5.28;4.38;;;;;;;7.65;100.00;98350.06;6103193;19;20017;-71
2024/03/14 06:39:57;;;;;;;6.05;4.20;;;;;;;7.67;100.00;98350.50;6103013;19;20107;-71
2024/03/14 06:41:58;;;;;;;6.28;3.90;;;;;;;7.68;100.00;98361.16;6101043;19;19995;-71
2024/03/14 06:43:58;;;;;;;5.38;4.45;;;;;;;7.72;100.00;98352.97;6101742;19;20002;-71
2024/03/14 06:45:59;;;;;;;7.03;4.38;;;;;;;7.73;100.00;98354.56;6096360;19;19999;-71
2024/03/14 06:47:59;;;;;;;6.82;4.10;;;;;;;7.75;100.00;98353.03;6095595;19;19999;-71
2024/03/14 06:50:00;;;;;;;5.68;4.13;;;;;;;7.75;100.00;98355.78;6099814;19;20002;-71
2024/03/14 06:52:05;;;;;;;27.05;10.77;;;;;;;7.77;100.00;98344.41;6099527;19;20074;-71
2024/03/14 06:54:05;;;;;;;54.17;20.33;;;;;;;7.79;100.00;98355.88;6086227;19;19994;-71
2024/03/14 06:56:08;;;;;;;76.93;24.23;;;;;;;7.78;100.00;98357.03;6097105;19;20006;-71
2024/03/14 06:58:11;;;;;;;16.48;7.88;;;;;;;7.82;100.00;98358.69;6100160;19;20015;-71
2024/03/14 07:00:12;;;;;;;;;;;;;;;7.82;100.00;98352.38;6101246;19;20035;-72
2024/03/14 07:02:15;;;;;;;9.30;4.50;;;;;;;7.81;100.00;98359.06;6095538;19;19974;-71
2024/03/14 07:04:16;;;;;;;;;;;;;;;7.83;100.00;98360.28;6101795;19;20538;-71
2024/03/14 07:06:16;;;;;;;5.63;3.40;;;;;;;7.82;100.00;98355.94;6094957;19;19918;-71
2024/03/14 07:08:17;;;;;;;5.30;3.25;;;;;;;7.82;100.00;98358.69;6092292;19;20033;-71
2024/03/14 07:10:19;;;;;;;5.72;3.30;;;;;;;7.86;100.00;98367.84;6089740;19;20009;-71
2024/03/14 07:12:21;;;;;;;6.07;3.63;;;;;;;7.87;100.00;98360.38;6092971;19;20478;-71
2024/03/14 07:14:23;;;;;;;6.97;3.80;;;;;;;7.87;100.00;98361.16;6099055;19;20026;-71
2024/03/14 07:16:23;;;;;;;6.13;3.95;;;;;;;7.93;100.00;98361.66;6099603;19;20433;-71
2024/03/14 07:18:24;;;;;;;5.00;3.22;;;;;;;7.96;100.00;98365.66;6102846;19;20356;-71
2024/03/14 07:20:33;;;;;;;5.63;3.40;;;;;;;7.98;100.00;98361.38;6100620;19;19998;-71
2024/03/14 07:22:34;;;;;;;6.55;3.75;;;;;;;8.02;100.00;98356.72;6103192;19;20474;-71
2024/03/14 07:24:34;;;;;;;7.18;3.90;;;;;;;8.07;100.00;98361.16;6104057;19;20023;-71
2024/03/14 07:26:37;;;;;;;6.82;4.13;;;;;;;8.11;100.00;98360.06;6094783;19;20006;-71
2024/03/14 07:28:38;;;;;;;9.95;5.25;;;;;;;8.18;100.00;98362.94;6101527;19;20006;-71
2024/03/14 07:30:41;;;;;;;8.65;5.60;;;;;;;8.21;100.00;98369.69;6106623;19;20016;-71
2024/03/14 07:32:42;;;;;;;14.13;8.55;;;;;;;8.24;100.00;98368.97;6099336;19;20002;-71
2024/03/14 07:34:44;;;;;;;23.45;11.02;;;;;;;8.25;100.00;98369.75;6103021;19;19999;-71
2024/03/14 07:36:45;;;;;;;;;;;;;;;8.31;100.00;98377.38;6104179;19;20027;-72
2024/03/14 07:38:48;;;;;;;16.60;9.80;;;;;;;8.34;100.00;98381.34;6102060;19;20782;-71
2024/03/14 07:40:49;;;;;;;22.30;11.98;;;;;;;8.36;100.00;98373.56;6108133;19;20010;-71
2024/03/14 07:42:49;;;;;;;28.08;14.52;;;;;;;8.39;100.00;98381.88;6103339;19;20009;-71
2024/03/14 07:44:50;;;;;;;20.65;12.77;;;;;;;8.42;100.00;98374.81;6102591;19;20026;-71
2024/03/14 07:46:50;;;;;;;19.13;11.05;;;;;;;8.47;100.00;98385.56;6108526;19;20011;-71
2024/03/14 07:48:51;;;;;;;10.45;6.90;;;;;;;8.52;100.00;98376.19;6106798;19;20465;-71
2024/03/14 07:50:51;;;;;;;5.80;5.20;;;;;;;8.56;100.00;98377.84;6098826;19;20018;-71
2024/03/14 07:52:54;;;;;;;6.78;4.93;;;;;;;8.61;100.00;98390.53;6097493;19;20264;-71
2024/03/14 07:54:54;;;;;;;8.02;5.15;;;;;;;8.64;100.00;98382.31;6106519;19;20007;-71
2024/03/14 07:56:54;;;;;;;8.90;6.30;;;;;;;8.65;100.00;98385.88;6107728;19;20002;-72
2024/03/14 07:58:55;;;;;;;7.68;5.28;;;;;;;8.68;100.00;98377.66;6101652;19;20442;-72
2024/03/14 08:00:55;;;;;;;7.88;6.53;;;;;;;8.73;100.00;98387.59;6106890;19;20443;-71
2024/03/14 08:02:56;;;;;;;8.77;5.97;;;;;;;8.76;100.00;98384.09;6106950;19;20054;-71
2024/03/14 08:04:57;;;;;;;6.18;4.32;;;;;;;8.77;100.00;98385.72;6107378;19;19998;-71
2024/03/14 08:06:57;;;;;;;5.57;3.80;;;;;;;8.84;100.00;98382.25;6108040;19;20313;-71
2024/03/14 08:09:01;;;;;;;4.63;3.60;;;;;;;8.87;100.00;98378.78;6105024;19;20009;-71
2024/03/14 08:11:03;;;;;;;6.40;3.80;;;;;;;8.92;100.00;98379.22;6107101;19;20566;-71
2024/03/14 08:13:04;;;;;;;4.55;3.17;;;;;;;8.96;100.00;98379.31;6105397;19;20003;-71
2024/03/14 08:15:16;;;;;;;5.30;3.42;;;;;;;8.99;100.00;98387.63;6104753;19;20390;-71
2024/03/14 08:17:20;;;;;;;4.82;3.72;;;;;;;9.04;100.00;98388.50;6107283;19;20471;-71
2024/03/14 08:19:21;;;;;;;6.55;3.72;;;;;;;9.12;100.00;98396.53;6106755;19;20066;-71
2024/03/14 08:21:22;;;;;;;5.55;4.18;;;;;;;9.16;100.00;98393.81;6104554;19;20024;-71
2024/03/14 08:23:23;;;;;;;7.65;4.60;;;;;;;9.17;100.00;98390.69;6106069;19;20003;-71
2024/03/14 08:25:24;;;;;;;5.28;3.90;;;;;;;9.25;100.00;98394.34;6106830;19;20402;-71
2024/03/14 08:27:25;;;;;;;5.57;4.38;;;;;;;9.28;100.00;98390.84;6107231;19;20499;-71
2024/03/14 08:29:26;;;;;;;5.20;3.88;;;;;;;9.35;100.00;98392.91;6104369;19;20002;-71
2024/03/14 08:31:27;;;;;;;6.65;3.90;;;;;;;9.41;100.00;98396.94;6103902;19;20094;-71
2024/03/14 08:33:28;;;;;;;4.93;3.45;;;;;;;9.42;100.00;98396.56;6095344;19;20363;-71
2024/03/14 08:35:28;;;;;;;6.82;3.72;;;;;;;9.49;100.00;98399.44;6104386;19;20002;-71
2024/03/14 08:37:30;;;;;;;4.72;3.60;;;;;;;9.53;100.00;98392.00;6105793;19;20017;-71
2024/03/14 08:39:30;;;;;;;9.55;7.03;;;;;;;9.60;100.00;98391.31;6106297;19;20070;-71
2024/03/14 08:41:32;;;;;;;7.13;4.75;;;;;;;9.67;100.00;98398.88;6110241;19;20473;-71
2024/03/14 08:43:33;;;;;;;6.68;4.18;;;;;;;9.70;100.00;98404.47;6111063;19;20078;-71
2024/03/14 08:45:35;;;;;;;10.15;5.40;;;;;;;9.74;100.00;98391.50;6109564;19;20498;-71
2024/03/14 08:47:36;;;;;;;8.63;5.57;;;;;;;9.79;100.00;98401.44;6111238;19;20003;-71
2024/03/14 08:49:36;;;;;;;10.43;6.43;;;;;;;9.82;100.00;98403.44;6106938;19;20003;-71
2024/03/14 08:51:37;;;;;;;9.05;5.63;;;;;;;9.85;100.00;98405.47;6106077;19;20014;-71
2024/03/14 08:54:07;;;;;;;10.52;5.88;;;;;;;9.88;100.00;98401.16;6110974;19;20002;-71
2024/03/14 08:55:58;;;;;;;8.43;5.22;;;;;;;9.92;100.00;98401.97;6110695;19;20006;-71
2024/03/14 08:58:02;;;;;;;9.13;5.97;;;;;;;9.92;100.00;98396.47;6110753;19;19998;-71
2024/03/14 09:00:04;;;;;;;8.27;5.30;;;;;;;9.99;100.00;98399.31;6110480;19;20002;-71
2024/03/14 09:02:07;;;;;;;10.63;5.53;;;;;;;10.02;100.00;98391.09;6109197;19;20002;-71
2024/03/14 09:04:08;;;;;;;7.88;5.25;;;;;;;10.11;100.00;98396.31;6111370;19;20002;-71
2024/03/14 09:06:08;;;;;;;9.63;6.15;;;;;;;10.17;100.00;98392.03;6111520;19;20300;-71
2024/03/14 09:08:08;;;;;;;9.07;6.30;;;;;;;10.30;100.00;98395.38;6111897;19;20030;-71
2024/03/14 09:10:16;;;;;;;7.90;5.32;;;;;;;10.35;100.00;98397.81;6109851;19;20026;-71
2024/03/14 09:12:24;;;;;;;8.57;5.68;;;;;;;10.44;100.00;98395.53;6109598;19;19995;-71
2024/03/14 09:14:25;;;;;;;6.50;4.47;;;;;;;10.52;100.00;98399.19;6111562;19;20014;-71
2024/03/14 09:16:26;;;;;;;6.35;4.47;;;;;;;10.56;100.00;98392.50;6110554;19;20344;-71
2024/03/14 09:18:26;;;;;;;6.35;4.60;;;;;;;10.61;100.00;98402.44;6111277;19;20122;-71
2024/03/14 09:20:28;;;;;;;6.88;3.88;;;;;;;10.66;100.00;98397.31;6109461;19;20029;-71
2024/03/14 09:22:28;;;;;;;6.13;4.43;;;;;;;10.70;100.00;98394.59;6109983;19;20012;-71
2024/03/14 09:24:28;;;;;;;7.38;4.78;;;;;;;10.73;100.00;98388.31;6111050;19;20007;-71
2024/03/14 09:26:29;;;;;;;12.45;4.40;;;;;;;10.72;100.00;98389.47;6109750;19;20006;-71
2024/03/14 09:28:31;;;;;;;11.25;4.90;;;;;;;10.68;100.00;98386.69;6110760;19;20003;-71